WetterOnline ( https://www.wetteronline.de )

Wetter aktuell Pinneberg

Aktuelles Wetter: Quickborn (17m)

6-stündlich | Neueste Meldungen
Ortszeit Temperatur Wetter
Mi, 26.06. 20:00 19.2° C leicht bewölkt
Mi, 26.06. 14:00 25.3° C wolkenlos
Mi, 26.06. 8:00 24.6° C wolkig
Mi, 26.06. 2:00 18.4° C wolkenlos
Di, 25.06. 20:00 30.7° C wolkig
Di, 25.06. 14:00 31.1° C wolkenlos
Di, 25.06. 8:00 20.2° C leicht bewölkt
Di, 25.06. 2:00 17.6° C leicht bewölkt
Ortszeit Temperatur Wetter
Mi, 26.06. 21:30 17.0° C bedeckt
Mi, 26.06. 21:20 17.0° C bedeckt
Mi, 26.06. 21:10 17.1° C bedeckt
Mi, 26.06. 21:00 17.3° C bewölkt
Mi, 26.06. 20:50 17.3° C bewölkt
Mi, 26.06. 20:40 17.5° C bewölkt
Mi, 26.06. 20:30 18.3° C wolkig
Mi, 26.06. 20:00 19.2° C leicht bewölkt
Mi, 26.06. 19:30 19.4° C wolkenlos
Mi, 26.06. 19:00 20.0° C wolkenlos
Mi, 26.06. 18:30 20.8° C wolkenlos
Ortszeit Relative Feuchte Sichtweite
Mi, 26.06. 20:00 70% 50 km
Mi, 26.06. 14:00 63% 30 km
Mi, 26.06. 8:00 68% 29 km
Mi, 26.06. 2:00 93% 23 km
Di, 25.06. 20:00 41% 8 km
Di, 25.06. 14:00 37% >70 km
Di, 25.06. 8:00 61% 45 km
Di, 25.06. 2:00 73% 55 km
Ortszeit Relative Feuchte Sichtweite
Mi, 26.06. 21:30 74% 35 km
Mi, 26.06. 21:20 74% -
Mi, 26.06. 21:10 75% -
Mi, 26.06. 21:00 74% 40 km
Mi, 26.06. 20:50 74% -
Mi, 26.06. 20:40 73% -
Mi, 26.06. 20:30 73% 55 km
Mi, 26.06. 20:00 70% 50 km
Mi, 26.06. 19:30 69% 40 km
Mi, 26.06. 19:00 67% 35 km
Mi, 26.06. 18:30 70% 35 km
Ortszeit Niederschlagsmenge Niederschlagsart
Mi, 26.06. 20:00 0.0 l/m2 in 12 Std. -
Mi, 26.06. 14:00 0.0 l/m2 in 6 Std. -
Mi, 26.06. 8:00 0.0 l/m2 in 12 Std. -
Mi, 26.06. 2:00 0.0 l/m2 in 6 Std. -
Di, 25.06. 20:00 0.0 l/m2 in 12 Std. -
Di, 25.06. 14:00 0.0 l/m2 in 6 Std. -
Di, 25.06. 8:00 0.0 l/m2 in 12 Std. -
Di, 25.06. 2:00 0.0 l/m2 in 6 Std. -
Ortszeit Niederschlagsmenge Niederschlagsart
Mi, 26.06. 21:30 0.0 l/m2 in 1 Std. -
Mi, 26.06. 21:20 keine Meldung -
Mi, 26.06. 21:10 keine Meldung -
Mi, 26.06. 21:00 0.0 l/m2 in 1 Std. -
Mi, 26.06. 20:50 keine Meldung -
Mi, 26.06. 20:40 keine Meldung -
Mi, 26.06. 20:30 0.0 l/m2 in 1 Std. -
Mi, 26.06. 20:00 0.0 l/m2 in 1 Std. -
Mi, 26.06. 19:30 0.0 l/m2 in 1 Std. -
Mi, 26.06. 19:00 0.0 l/m2 in 1 Std. -
Mi, 26.06. 18:30 0.0 l/m2 in 1 Std. -
Ortszeit Stärke Spitze Richtung
km/h Bft. km/h Grad Sektor
Mi, 26.06. 20:00 17 3 44 300° NW
Mi, 26.06. 14:00 24 4 41 280° W
Mi, 26.06. 8:00 7 2 14 260° W
Mi, 26.06. 2:00 0 0 22 - -
Di, 25.06. 20:00 9 2 31 140° SO
Di, 25.06. 14:00 13 3 24 150° SO
Di, 25.06. 8:00 7 2 22 110° O
Di, 25.06. 2:00 7 2 29 70° O
Ortszeit Stärke Spitze Richtung
km/h Bft. km/h Grad Sektor
Mi, 26.06. 21:30 19 3 35 290° W
Mi, 26.06. 21:20 19 3 - 290° W
Mi, 26.06. 21:10 18 3 - 290° W
Mi, 26.06. 21:00 18 3 36 290° W
Mi, 26.06. 20:50 18 3 - 290° W
Mi, 26.06. 20:40 20 4 - 290° W
Mi, 26.06. 20:30 18 3 32 300° NW
Mi, 26.06. 20:00 17 3 35 300° NW
Mi, 26.06. 19:30 22 4 36 290° W
Mi, 26.06. 19:00 29 5 43 290° W
Mi, 26.06. 18:30 24 4 43 280° W
Ortszeit Untergrenze Bedeckung Gattung
total tief tief mittel hoch
Mi, 26.06. 20:00 600 m 4/8 2/8 - - -
Mi, 26.06. 14:00 - 0/8 0/8 - - -
Mi, 26.06. 8:00 2100 m 6/8 4/8 - - -
Mi, 26.06. 2:00 - 0/8 0/8 - - -
Di, 25.06. 20:00 6300 m 8/8 6/8 - - -
Di, 25.06. 14:00 - 0/8 0/8 - - -
Di, 25.06. 8:00 9000 m 7/8 0/8 - - -
Di, 25.06. 2:00 10500 m 6/8 0/8 - - -
Ortszeit Bedeckungsgrad in Achtel und Wolkenuntergrenze
Mi, 26.06. 21:30 8(570m)
Mi, 26.06. 21:20 8(570m)
Mi, 26.06. 21:10 8(570m)
Mi, 26.06. 21:00 7(600m)
Mi, 26.06. 20:50 7(600m)
Mi, 26.06. 20:40 7(600m)
Mi, 26.06. 20:30 5(600m) 5(10500m)
Mi, 26.06. 20:00 2(600m) 4(10500m)
Mi, 26.06. 19:30 keine Wolken
Mi, 26.06. 19:00 keine Wolken
Mi, 26.06. 18:30 1(570m)
Ortszeit Luftdruck NN (hPa) Tendenz (hPa in 3 Std.)
Mi, 26.06. 20:00 1024 + 0,9
Mi, 26.06. 14:00 1022 + 1,9
Mi, 26.06. 8:00 1018 + 0,4
Mi, 26.06. 2:00 1018 - 0,2
Di, 25.06. 20:00 1018 - 0,2
Di, 25.06. 14:00 1020 - 0,8
Di, 25.06. 8:00 1021 - 0,7
Di, 25.06. 2:00 1022 + 0,5
Ortszeit Luftdruck NN (hPa) Tendenz (hPa in 3 Std.)
Mi, 26.06. 21:30 1025 + 1,1
Mi, 26.06. 21:20 1025 keine Meldung
Mi, 26.06. 21:10 1025 keine Meldung
Mi, 26.06. 21:00 1024 + 1,1
Mi, 26.06. 20:50 1024 keine Meldung
Mi, 26.06. 20:40 1024 keine Meldung
Mi, 26.06. 20:30 1024 + 0,9
Mi, 26.06. 20:00 1024 + 0,9
Mi, 26.06. 19:30 1024 + 0,7
Mi, 26.06. 19:00 1024 + 1,1
Mi, 26.06. 18:30 1023 + 0,9
Ortszeit Schneehöhe (cm)
Mi, 26.06. 20:00 -
Mi, 26.06. 14:00 -
Mi, 26.06. 8:00 -
Mi, 26.06. 2:00 -
Di, 25.06. 20:00 -
Di, 25.06. 14:00 -
Di, 25.06. 8:00 -
Di, 25.06. 2:00 -
Ortszeit Schneehöhe (cm)
Mi, 26.06. 21:30 -
Mi, 26.06. 21:20 -
Mi, 26.06. 21:10 -
Mi, 26.06. 21:00 -
Mi, 26.06. 20:50 -
Mi, 26.06. 20:40 -
Mi, 26.06. 20:30 -
Mi, 26.06. 20:00 -
Mi, 26.06. 19:30 -
Mi, 26.06. 19:00 -
Mi, 26.06. 18:30 -
Link zu dieser Seite / Seite empfehlen

Das Wetter in ...